Pagina principale
METAR-TAF:

METAR-TAF

Aeroporti :

Aeroporto di Gibilterra

Gibilterra, Gibilterra

latitudine: 36-09N, longitudine: 005-21W, altezza: 5 m

Osservazione

Il bollettino è stato emesso 1 ora e 3 minuti fa, alle 13:50 UTC
Vento 6 kt da sud
Temperature 22°C
Umidità 60%
Pressione 1012 hPa
Visibilità 10 km o più
Poco nuvoloso ad un'altezza di 4000 ft, Cumulonembo.

METAR: LXGB 211350Z 18006KT 9999 FEW040CB 22/14 Q1012 NOSIG

Ora: 16:53 (14:53 UTC)

Previsione

Il bollettino è stato emesso 1 ora e 27 minuti fa, alle 13:26 UTC
Previsione valida dal 21 alle 15 UTC al 21 alle 22 UTC
Vento 5 kt da direzioni variabili
Visibilità 10 km o più
Poco nuvoloso ad un'altezza di 4500 ft

TAF: LXGB 211326Z 2115/2122 VRB05KT 9999 FEW045

Osservazioni e previsioni meteorologiche di più di 4000 aeroporti (messaggi METAR e TAF).

Le stazioni disponibili sono rappresentate dai dischi gialli e rossi sulla carta.

Puntare il mouse per vedere il nome della stazione.

Clicca sopra per visualizzare le osservazioni e previsioni meteorologiche.

Per cambiare la mappa : fare clic sui pulsanti verdi con una croce nera per ingrandire, il pulsante verde con un trattino per diminuire, o sulla freccia verde per le mappe adiacenti.


METAR-TAF: